createdAt,value
2019-05-23T00:00:32.089Z,76.48
2019-05-23T00:03:14.809Z,76.40
2019-05-23T00:06:23.834Z,76.47
2019-05-23T00:12:25.191Z,76.59
2019-05-23T00:15:10.233Z,76.62
2019-05-23T00:21:05.145Z,76.84
2019-05-23T00:26:45.887Z,76.88
2019-05-23T00:29:27.426Z,76.99
2019-05-23T00:35:12.469Z,77.14
2019-05-23T00:37:53.524Z,77.28
2019-05-23T00:40:36.694Z,77.30
2019-05-23T00:43:18.518Z,77.23
2019-05-23T00:46:27.591Z,77.26
2019-05-23T00:49:17.094Z,77.25
2019-05-23T00:54:59.931Z,77.27
2019-05-23T00:57:48.992Z,77.26
2019-05-23T01:00:37.958Z,77.43
2019-05-23T01:03:37.522Z,77.57
2019-05-23T01:09:46.799Z,77.48
2019-05-23T01:12:28.471Z,77.39
2019-05-23T01:15:37.960Z,77.30
2019-05-23T01:21:47.433Z,77.23
2019-05-23T01:24:47.136Z,77.24
2019-05-23T01:27:56.105Z,77.27
2019-05-23T01:34:04.936Z,77.58
2019-05-23T01:39:45.522Z,77.82
2019-05-23T01:42:27.027Z,78.15
2019-05-23T01:45:09.506Z,78.10
2019-05-23T01:47:51.239Z,78.17
2019-05-23T01:51:00.748Z,78.10
2019-05-23T01:54:00.560Z,78.10
2019-05-23T01:59:43.557Z,78.14
2019-05-23T02:02:24.412Z,78.11
2019-05-23T02:05:06.264Z,78.25
2019-05-23T02:08:06.962Z,78.25
2019-05-23T02:10:49.006Z,78.22
2019-05-23T02:13:58.234Z,78.03
2019-05-23T02:19:48.825Z,77.96
2019-05-23T02:22:30.739Z,78.12
2019-05-23T02:25:39.721Z,78.33
2019-05-23T02:34:32.398Z,78.05
2019-05-23T02:43:51.926Z,78.15
2019-05-23T02:52:18.191Z,78.25
2019-05-23T02:55:27.240Z,78.14
2019-05-23T03:01:31.128Z,78.34
2019-05-23T03:04:15.701Z,78.37
2019-05-23T03:07:24.734Z,78.36
2019-05-23T03:10:33.136Z,78.34
2019-05-23T03:13:16.307Z,78.34
2019-05-23T03:15:47.861Z,78.50
2019-05-23T03:18:56.813Z,78.43
2019-05-23T03:25:05.805Z,78.31
2019-05-23T03:27:54.831Z,78.24
2019-05-23T03:30:38.201Z,78.17
2019-05-23T03:33:20.247Z,78.16
2019-05-23T03:36:01.566Z,78.10
2019-05-23T03:38:43.593Z,77.91
2019-05-23T03:41:25.400Z,77.84
2019-05-23T03:44:07.421Z,77.84
2019-05-23T03:46:50.075Z,77.76
2019-05-23T03:49:31.471Z,77.54
2019-05-23T03:52:12.378Z,77.49
2019-05-23T03:58:22.428Z,76.77
2019-05-23T04:01:12.943Z,76.80
2019-05-23T04:03:45.215Z,76.71
2019-05-23T04:06:18.106Z,76.71
2019-05-23T04:08:48.783Z,76.35
2019-05-23T04:11:23.170Z,76.37
2019-05-23T04:13:54.187Z,76.36
2019-05-23T04:16:30.243Z,76.20
2019-05-23T04:19:00.764Z,76.19
2019-05-23T04:21:31.291Z,76.03
2019-05-23T04:24:04.781Z,75.78
2019-05-23T04:26:35.149Z,75.52
2019-05-23T04:29:06.574Z,75.31
2019-05-23T04:31:37.959Z,75.19
2019-05-23T04:34:08.886Z,75.09
2019-05-23T04:36:39.338Z,75.05
2019-05-23T04:39:13.142Z,74.94
2019-05-23T04:41:43.935Z,74.84
2019-05-23T04:44:18.102Z,74.84
2019-05-23T04:46:48.782Z,74.89
2019-05-23T04:49:19.888Z,74.80
2019-05-23T04:51:50.747Z,74.91
2019-05-23T04:54:23.719Z,75.01
2019-05-23T04:56:57.229Z,74.77
2019-05-23T04:59:27.880Z,74.62
2019-05-23T05:01:59.848Z,74.53
2019-05-23T05:04:30.444Z,74.21
2019-05-23T05:07:01.170Z,73.99
2019-05-23T05:09:32.795Z,73.81
2019-05-23T05:12:07.127Z,74.01
2019-05-23T05:14:37.497Z,74.00
2019-05-23T05:17:08.684Z,73.83
2019-05-23T05:19:41.410Z,73.78
2019-05-23T05:22:13.330Z,73.60
2019-05-23T05:24:43.993Z,73.32
2019-05-23T05:27:16.671Z,73.08
2019-05-23T05:29:47.121Z,73.12
2019-05-23T05:32:24.743Z,73.22
2019-05-23T05:34:54.827Z,73.27
2019-05-23T05:37:25.988Z,73.07
2019-05-23T05:39:56.341Z,72.90
2019-05-23T05:42:30.438Z,73.15
2019-05-23T05:45:03.935Z,73.07
2019-05-23T05:47:34.538Z,72.73
2019-05-23T05:50:09.780Z,72.34
2019-05-23T05:52:41.522Z,72.23
2019-05-23T05:55:13.075Z,71.93
2019-05-23T05:57:43.543Z,71.56
2019-05-23T06:00:32.389Z,71.32
2019-05-23T06:03:05.419Z,71.05
2019-05-23T06:05:55.219Z,71.25
2019-05-23T06:08:29.791Z,71.03
2019-05-23T06:11:00.896Z,70.73
2019-05-23T06:13:32.820Z,70.17
2019-05-23T06:18:29.001Z,69.70
2019-05-23T06:21:04.727Z,69.72
2019-05-23T06:23:36.539Z,69.66
2019-05-23T06:26:07.144Z,69.25
2019-05-23T06:28:42.555Z,68.89
2019-05-23T06:31:14.923Z,68.54
2019-05-23T06:33:46.083Z,68.14
2019-05-23T06:36:17.655Z,68.05
2019-05-23T06:38:48.226Z,67.87
2019-05-23T06:41:19.633Z,67.50
2019-05-23T06:43:49.960Z,66.79
2019-05-23T06:46:22.524Z,66.04
2019-05-23T06:48:52.842Z,65.82
2019-05-23T06:51:24.110Z,65.30
2019-05-23T06:53:57.361Z,64.75
2019-05-23T06:56:28.277Z,64.55
2019-05-23T06:58:58.313Z,64.50
2019-05-23T07:01:31.711Z,64.07
2019-05-23T07:04:10.063Z,63.61
2019-05-23T07:06:39.939Z,63.92
2019-05-23T07:09:16.233Z,63.70
2019-05-23T07:11:46.286Z,62.55
2019-05-23T07:14:17.112Z,61.75
2019-05-23T07:16:50.199Z,60.82
2019-05-23T07:19:21.584Z,60.52
2019-05-23T07:21:52.019Z,59.98
2019-05-23T07:24:22.541Z,59.41
2019-05-23T07:26:52.532Z,58.70
2019-05-23T07:29:23.795Z,58.42
2019-05-23T07:31:55.498Z,58.27
2019-05-23T07:34:28.042Z,57.75
2019-05-23T07:36:59.008Z,57.41
2019-05-23T07:39:29.571Z,56.59
2019-05-23T07:42:01.543Z,56.31
2019-05-23T07:44:45.947Z,55.65
2019-05-23T07:47:04.706Z,55.72
2019-05-23T07:49:38.525Z,55.01
2019-05-23T07:52:09.840Z,54.83
2019-05-23T07:54:48.990Z,55.17
2019-05-23T07:57:20.298Z,54.84
2019-05-23T07:59:50.777Z,55.24
2019-05-23T08:02:30.356Z,54.98
2019-05-23T08:05:01.307Z,54.20
2019-05-23T08:07:32.907Z,53.94
2019-05-23T08:10:09.712Z,53.25
2019-05-23T08:12:40.374Z,53.11
2019-05-23T08:15:13.532Z,52.26
2019-05-23T08:17:44.873Z,51.61
2019-05-23T08:20:16.458Z,50.96
2019-05-23T08:22:47.960Z,50.43
2019-05-23T08:25:18.440Z,49.04
2019-05-23T08:27:53.568Z,50.04
2019-05-23T08:30:24.832Z,50.80
2019-05-23T08:32:56.934Z,50.49
2019-05-23T08:35:27.288Z,50.33
2019-05-23T08:38:02.636Z,50.90
2019-05-23T08:40:37.369Z,50.61
2019-05-23T08:43:10.891Z,50.82
2019-05-23T08:45:42.752Z,51.32
2019-05-23T08:48:17.970Z,51.36
2019-05-23T08:50:51.974Z,51.43
2019-05-23T08:53:25.198Z,51.25
2019-05-23T08:55:55.652Z,50.45
2019-05-23T08:58:30.827Z,50.49
2019-05-23T09:01:07.817Z,50.86
2019-05-23T09:03:39.701Z,49.81
2019-05-23T09:06:38.822Z,49.72
2019-05-23T09:09:28.245Z,49.24
2019-05-23T09:11:45.423Z,49.11
2019-05-23T09:14:16.766Z,48.05
2019-05-23T09:16:47.267Z,48.61
2019-05-23T09:19:17.473Z,49.68
2019-05-23T09:21:48.023Z,48.81
2019-05-23T09:24:18.787Z,47.90
2019-05-23T09:26:52.185Z,46.73
2019-05-23T09:29:30.636Z,45.64
2019-05-23T09:32:05.175Z,45.67
2019-05-23T09:34:37.012Z,45.45
2019-05-23T09:37:09.842Z,45.10
2019-05-23T09:39:44.780Z,44.46
2019-05-23T09:42:16.150Z,44.51
2019-05-23T09:44:49.051Z,44.75
2019-05-23T09:47:21.029Z,46.43
2019-05-23T09:49:54.302Z,45.43
2019-05-23T09:52:25.386Z,45.38
2019-05-23T09:54:59.563Z,45.38
2019-05-23T09:57:33.251Z,44.77
2019-05-23T10:00:06.421Z,46.50
2019-05-23T10:02:38.110Z,46.01
2019-05-23T10:05:13.006Z,46.33
2019-05-23T10:07:44.582Z,45.43
2019-05-23T10:10:18.250Z,45.01
2019-05-23T10:12:49.718Z,43.77
2019-05-23T10:15:40.188Z,43.36
2019-05-23T10:18:19.793Z,42.68
2019-05-23T10:20:51.762Z,43.11
2019-05-23T10:23:32.543Z,40.63
2019-05-23T10:26:07.578Z,40.06
2019-05-23T10:28:46.153Z,40.55
2019-05-23T10:31:23.029Z,40.80
2019-05-23T10:34:05.219Z,40.33
2019-05-23T10:36:41.051Z,39.92
2019-05-23T10:39:19.075Z,39.33
2019-05-23T10:41:49.982Z,38.99
2019-05-23T10:44:29.090Z,39.41
2019-05-23T10:47:00.332Z,40.92
2019-05-23T10:49:32.261Z,40.83
2019-05-23T10:52:10.455Z,40.51
2019-05-23T10:54:41.625Z,38.58
2019-05-23T10:57:15.730Z,39.68
2019-05-23T10:59:48.662Z,39.95
2019-05-23T11:02:19.446Z,39.55
2019-05-23T11:04:49.799Z,40.33
2019-05-23T11:07:24.887Z,41.32
2019-05-23T11:09:56.132Z,42.19
2019-05-23T11:12:28.072Z,42.35
2019-05-23T11:15:02.044Z,41.96
2019-05-23T11:17:38.830Z,42.22
2019-05-23T11:20:13.248Z,41.20
2019-05-23T11:22:47.132Z,41.21
2019-05-23T11:25:21.900Z,40.98
2019-05-23T11:27:54.419Z,40.45
2019-05-23T11:30:47.038Z,40.36
2019-05-23T11:33:22.949Z,40.64
2019-05-23T11:35:59.698Z,40.99
2019-05-23T11:38:32.164Z,40.27
2019-05-23T11:41:12.567Z,40.45
2019-05-23T11:43:43.450Z,40.22
2019-05-23T11:46:22.133Z,39.66
2019-05-23T11:48:52.592Z,39.27
2019-05-23T11:51:28.306Z,38.97
2019-05-23T11:54:07.441Z,38.65
2019-05-23T11:56:35.451Z,38.76
2019-05-23T11:59:10.467Z,37.93
2019-05-23T12:02:02.681Z,38.28
2019-05-23T12:04:40.503Z,38.91
2019-05-23T12:07:20.568Z,38.83
2019-05-23T12:09:58.500Z,38.94
2019-05-23T12:12:29.897Z,38.84
2019-05-23T12:15:00.853Z,38.56
2019-05-23T12:17:33.089Z,38.45
2019-05-23T12:20:07.109Z,38.91
2019-05-23T12:22:37.927Z,38.70
2019-05-23T12:25:22.430Z,37.94
2019-05-23T12:27:53.413Z,37.79
2019-05-23T12:30:24.052Z,37.61
2019-05-23T12:32:54.871Z,37.17
2019-05-23T12:35:33.676Z,37.81
2019-05-23T12:38:04.737Z,36.45
2019-05-23T12:40:36.324Z,36.66
2019-05-23T12:43:13.687Z,37.04
2019-05-23T12:45:45.424Z,36.54
2019-05-23T12:48:33.703Z,37.02
2019-05-23T12:51:31.945Z,36.71
2019-05-23T12:54:14.587Z,36.30
2019-05-23T12:56:51.652Z,36.34
2019-05-23T12:59:32.928Z,36.23
2019-05-23T13:02:24.512Z,35.78
2019-05-23T13:05:17.303Z,36.09
2019-05-23T13:07:52.774Z,35.39
2019-05-23T13:10:31.192Z,36.38
2019-05-23T13:13:02.841Z,35.58
2019-05-23T13:15:34.236Z,36.19
2019-05-23T13:18:11.637Z,36.47
2019-05-23T13:20:51.667Z,36.85
2019-05-23T13:23:27.517Z,37.05
2019-05-23T13:26:00.189Z,37.03
2019-05-23T13:28:32.513Z,37.11
2019-05-23T13:31:04.857Z,36.90
2019-05-23T13:33:38.585Z,36.59
2019-05-23T13:36:11.245Z,35.30
2019-05-23T13:38:48.605Z,35.84
2019-05-23T13:41:30.646Z,35.67
2019-05-23T13:44:05.554Z,35.76
2019-05-23T13:46:36.436Z,35.17
2019-05-23T13:49:09.161Z,35.00
2019-05-23T13:51:41.968Z,34.71
2019-05-23T13:54:35.699Z,34.30
2019-05-23T13:57:09.067Z,34.38
2019-05-23T13:59:40.409Z,34.77
2019-05-23T14:02:11.429Z,34.88
2019-05-23T14:04:43.708Z,34.40
2019-05-23T14:07:15.218Z,34.75
2019-05-23T14:09:46.378Z,34.33
2019-05-23T14:12:21.389Z,33.60
2019-05-23T14:14:49.446Z,34.06
2019-05-23T14:17:44.194Z,35.27
2019-05-23T14:20:17.180Z,35.31
2019-05-23T14:22:53.194Z,35.04
2019-05-23T14:25:24.759Z,35.03
2019-05-23T14:28:11.118Z,34.83
2019-05-23T14:31:02.604Z,34.59
2019-05-23T14:33:49.874Z,34.37
2019-05-23T14:36:39.323Z,34.80
2019-05-23T14:39:39.766Z,34.20
2019-05-23T14:42:28.294Z,33.79
2019-05-23T14:45:15.242Z,33.67
2019-05-23T14:47:56.902Z,33.30
2019-05-23T14:50:54.047Z,33.83
2019-05-23T14:53:26.980Z,33.32
2019-05-23T14:56:00.525Z,33.61
2019-05-23T14:58:33.875Z,33.11
2019-05-23T15:01:14.489Z,32.50
2019-05-23T15:03:44.814Z,32.74
2019-05-23T15:06:17.409Z,32.48
2019-05-23T15:08:53.557Z,32.69
2019-05-23T15:11:24.785Z,32.30
2019-05-23T15:13:56.404Z,32.72
2019-05-23T15:16:27.868Z,32.72
2019-05-23T15:19:00.350Z,32.74
2019-05-23T15:21:31.547Z,32.98
2019-05-23T15:24:07.754Z,32.85
2019-05-23T15:26:38.917Z,33.18
2019-05-23T15:29:16.307Z,33.06
2019-05-23T15:32:02.185Z,32.80
2019-05-23T15:34:35.714Z,32.72
2019-05-23T15:37:24.869Z,32.35
2019-05-23T15:40:13.101Z,31.98
2019-05-23T15:42:46.708Z,31.74
2019-05-23T15:45:23.540Z,32.00
2019-05-23T15:47:56.444Z,32.28
2019-05-23T15:50:33.587Z,32.29
2019-05-23T15:53:32.295Z,32.36
2019-05-23T15:56:27.394Z,32.29
2019-05-23T15:59:21.143Z,32.21
2019-05-23T16:01:59.786Z,32.30
2019-05-23T16:04:30.978Z,32.76
2019-05-23T16:07:07.571Z,32.76
2019-05-23T16:09:38.803Z,32.28
2019-05-23T16:12:15.549Z,32.65
2019-05-23T16:14:47.815Z,32.60
2019-05-23T16:17:18.688Z,32.23
2019-05-23T16:19:52.438Z,32.50
2019-05-23T16:22:25.221Z,32.02
2019-05-23T16:24:57.011Z,31.81
2019-05-23T16:27:37.224Z,31.41
2019-05-23T16:30:12.898Z,31.37
2019-05-23T16:32:56.962Z,31.71
2019-05-23T16:35:29.339Z,31.77
2019-05-23T16:38:04.138Z,31.65
2019-05-23T16:40:34.473Z,31.45
2019-05-23T16:43:08.386Z,31.29
2019-05-23T16:45:39.351Z,31.39
2019-05-23T16:48:09.809Z,31.62
2019-05-23T16:50:41.798Z,31.57
2019-05-23T16:53:12.641Z,31.25
2019-05-23T16:56:02.412Z,31.42
2019-05-23T16:59:07.400Z,31.35
2019-05-23T17:02:09.235Z,31.47
2019-05-23T17:04:59.493Z,31.26
2019-05-23T17:07:50.397Z,31.45
2019-05-23T17:10:39.137Z,31.56
2019-05-23T17:13:15.426Z,32.29
2019-05-23T17:15:55.385Z,31.92
2019-05-23T17:18:50.677Z,31.78
2019-05-23T17:21:38.778Z,31.60
2019-05-23T17:24:31.715Z,31.64
2019-05-23T17:27:23.005Z,32.12
2019-05-23T17:29:58.761Z,32.52
2019-05-23T17:32:33.532Z,32.77
2019-05-23T17:35:05.214Z,33.16
2019-05-23T17:37:35.331Z,33.49
2019-05-23T17:40:23.471Z,33.69
2019-05-23T17:42:43.461Z,34.18
2019-05-23T17:45:14.333Z,34.35
2019-05-23T17:47:44.828Z,34.98
2019-05-23T17:50:15.717Z,35.11
2019-05-23T17:52:47.806Z,35.41
2019-05-23T17:55:19.201Z,35.90
2019-05-23T17:57:49.579Z,36.48
2019-05-23T18:00:25.754Z,37.15
2019-05-23T18:02:59.926Z,37.47
2019-05-23T18:05:45.260Z,37.64
2019-05-23T18:08:21.475Z,38.29
2019-05-23T18:10:55.443Z,39.11
2019-05-23T18:13:33.081Z,39.39
2019-05-23T18:16:05.905Z,39.42
2019-05-23T18:18:40.161Z,39.61
2019-05-23T18:21:16.770Z,39.67
2019-05-23T18:23:49.641Z,40.02
2019-05-23T18:26:21.923Z,40.08
2019-05-23T18:28:53.918Z,40.62
2019-05-23T18:31:28.669Z,40.91
2019-05-23T18:34:00.732Z,41.55
2019-05-23T18:36:31.722Z,41.47
2019-05-23T18:39:07.898Z,41.92
2019-05-23T18:41:42.638Z,42.85
2019-05-23T18:44:19.263Z,42.54
2019-05-23T18:46:54.070Z,43.05
2019-05-23T18:49:25.940Z,43.30
2019-05-23T18:51:58.532Z,44.37
2019-05-23T18:54:29.761Z,45.01
2019-05-23T18:57:00.926Z,44.85
2019-05-23T18:59:31.971Z,45.39
2019-05-23T19:02:09.977Z,45.81
2019-05-23T19:04:40.695Z,45.90
2019-05-23T19:07:12.134Z,46.54
2019-05-23T19:09:44.217Z,46.94
2019-05-23T19:12:15.457Z,47.14
2019-05-23T19:14:46.511Z,47.69
2019-05-23T19:17:17.411Z,48.38
2019-05-23T19:19:48.615Z,49.26
2019-05-23T19:22:19.610Z,49.65
2019-05-23T19:24:50.139Z,49.95
2019-05-23T19:27:20.873Z,49.97
2019-05-23T19:29:51.227Z,50.17
2019-05-23T19:32:23.400Z,50.42
2019-05-23T19:34:56.555Z,51.01
2019-05-23T19:37:29.853Z,51.82
2019-05-23T19:40:11.341Z,52.65
2019-05-23T19:42:42.386Z,52.73
2019-05-23T19:45:14.596Z,53.05
2019-05-23T19:47:45.862Z,53.31
2019-05-23T19:50:19.170Z,53.62
2019-05-23T19:52:49.390Z,54.34
2019-05-23T19:55:24.569Z,54.93
2019-05-23T19:57:55.710Z,55.49
2019-05-23T20:00:32.059Z,55.96
2019-05-23T20:03:04.426Z,56.30
2019-05-23T20:05:39.246Z,56.96
2019-05-23T20:08:10.192Z,57.19
2019-05-23T20:10:41.578Z,57.63
2019-05-23T20:13:13.104Z,57.76
2019-05-23T20:15:47.833Z,57.78
2019-05-23T20:18:29.520Z,57.55
2019-05-23T20:21:21.018Z,57.74
2019-05-23T20:23:51.677Z,57.72
2019-05-23T20:26:23.371Z,57.81
2019-05-23T20:28:55.504Z,57.83
2019-05-23T20:31:27.678Z,57.93
2019-05-23T20:34:06.426Z,58.13
2019-05-23T20:36:35.404Z,58.05
2019-05-23T20:39:08.238Z,58.09
2019-05-23T20:41:42.353Z,58.35
2019-05-23T20:44:14.040Z,58.55
2019-05-23T20:46:45.551Z,58.62
2019-05-23T20:49:20.516Z,58.51
2019-05-23T20:51:54.106Z,58.36
2019-05-23T20:54:24.668Z,58.68
2019-05-23T20:56:54.566Z,59.07
2019-05-23T20:59:25.027Z,59.49
2019-05-23T21:01:57.156Z,60.01
2019-05-23T21:04:33.234Z,60.25
2019-05-23T21:07:05.521Z,60.39
2019-05-23T21:09:37.672Z,60.61
2019-05-23T21:12:09.392Z,60.80
2019-05-23T21:14:41.194Z,61.00
2019-05-23T21:17:12.130Z,61.08
2019-05-23T21:19:43.789Z,61.28
2019-05-23T21:22:17.086Z,61.44
2019-05-23T21:24:48.592Z,61.56
2019-05-23T21:27:21.852Z,61.60
2019-05-23T21:29:55.450Z,61.60
2019-05-23T21:32:26.622Z,61.87
2019-05-23T21:34:58.378Z,61.88
2019-05-23T21:37:29.679Z,62.13
2019-05-23T21:40:05.010Z,62.32
2019-05-23T21:42:47.322Z,62.88
2019-05-23T21:45:09.240Z,63.04
2019-05-23T21:47:40.503Z,63.20
2019-05-23T21:50:12.552Z,63.29
2019-05-23T21:52:42.720Z,63.57
2019-05-23T21:55:16.868Z,63.58
2019-05-23T21:57:46.884Z,63.86
2019-05-23T22:00:41.142Z,64.35
2019-05-23T22:03:12.245Z,64.43
2019-05-23T22:05:42.514Z,64.86
2019-05-23T22:08:12.872Z,64.91
2019-05-23T22:10:42.948Z,64.97
2019-05-23T22:13:19.838Z,65.00
2019-05-23T22:15:49.389Z,65.19
2019-05-23T22:18:20.412Z,65.27
2019-05-23T22:20:52.949Z,65.66
2019-05-23T22:23:26.453Z,65.88
2019-05-23T22:26:00.029Z,66.29
2019-05-23T22:28:30.371Z,66.31
2019-05-23T22:31:00.620Z,66.43
2019-05-23T22:33:32.383Z,66.57
2019-05-23T22:36:04.578Z,66.55
2019-05-23T22:38:38.943Z,66.81
2019-05-23T22:41:09.612Z,67.06
2019-05-23T22:43:39.801Z,67.27
2019-05-23T22:46:12.772Z,67.24
2019-05-23T22:48:44.291Z,66.92
2019-05-23T22:51:19.565Z,66.77
2019-05-23T22:53:49.902Z,66.75
2019-05-23T22:56:22.020Z,66.71
2019-05-23T22:58:56.156Z,66.77
2019-05-23T23:01:28.532Z,66.88
2019-05-23T23:04:02.114Z,66.94
2019-05-23T23:06:32.790Z,67.00
2019-05-23T23:09:04.719Z,67.10
2019-05-23T23:11:35.103Z,67.27
2019-05-23T23:14:05.950Z,67.65
2019-05-23T23:16:35.836Z,67.95
2019-05-23T23:19:07.675Z,67.95
2019-05-23T23:21:37.969Z,68.05
2019-05-23T23:24:15.795Z,68.14
2019-05-23T23:26:45.942Z,68.17
2019-05-23T23:29:19.256Z,68.15
2019-05-23T23:31:51.362Z,68.24
2019-05-23T23:34:21.650Z,68.46
2019-05-23T23:36:52.128Z,68.70
2019-05-23T23:39:22.415Z,68.93
2019-05-23T23:41:52.715Z,68.91
2019-05-23T23:44:33.752Z,68.82
2019-05-23T23:47:23.333Z,68.76
2019-05-23T23:50:11.176Z,68.99
2019-05-23T23:52:58.677Z,69.01
2019-05-23T23:55:48.675Z,68.93
2019-05-23T23:58:19.337Z,68.96
